sensor_id;sensor_type;location;lat;lon;timestamp;noise_LAeq;noise_LA_min;noise_LA_max;noise_LA01;noise_LA95
58197;Laerm;43999;51.660;5.616;2023-08-07T00:00:24;49.43;48.28;51.17;;
58197;Laerm;43999;51.660;5.616;2023-08-07T00:02:52;49.44;48.10;51.17;;
58197;Laerm;43999;51.660;5.616;2023-08-07T00:05:19;49.42;48.18;50.96;;
58197;Laerm;43999;51.660;5.616;2023-08-07T00:07:47;49.42;48.10;51.14;;
58197;Laerm;43999;51.660;5.616;2023-08-07T00:10:15;49.43;48.13;51.08;;
58197;Laerm;43999;51.660;5.616;2023-08-07T00:12:42;49.44;48.26;51.15;;
58197;Laerm;43999;51.660;5.616;2023-08-07T00:15:10;49.44;48.25;51.21;;
58197;Laerm;43999;51.660;5.616;2023-08-07T00:17:38;49.44;48.16;50.96;;
58197;Laerm;43999;51.660;5.616;2023-08-07T00:20:07;49.43;48.21;51.20;;
58197;Laerm;43999;51.660;5.616;2023-08-07T00:22:35;49.42;48.00;51.37;;
58197;Laerm;43999;51.660;5.616;2023-08-07T00:25:02;49.42;47.81;51.21;;
58197;Laerm;43999;51.660;5.616;2023-08-07T00:27:30;49.43;48.10;51.16;;
58197;Laerm;43999;51.660;5.616;2023-08-07T00:29:57;49.44;48.16;51.08;;
58197;Laerm;43999;51.660;5.616;2023-08-07T00:32:25;49.43;48.21;51.31;;
58197;Laerm;43999;51.660;5.616;2023-08-07T00:34:53;49.44;48.15;51.06;;
58197;Laerm;43999;51.660;5.616;2023-08-07T00:37:20;49.43;48.15;51.45;;
58197;Laerm;43999;51.660;5.616;2023-08-07T00:39:49;49.44;48.29;51.40;;
58197;Laerm;43999;51.660;5.616;2023-08-07T00:42:16;49.44;47.98;50.96;;
58197;Laerm;43999;51.660;5.616;2023-08-07T00:44:44;49.44;48.01;51.13;;
58197;Laerm;43999;51.660;5.616;2023-08-07T00:47:11;49.43;48.13;51.13;;
58197;Laerm;43999;51.660;5.616;2023-08-07T00:49:39;49.43;48.31;51.03;;
58197;Laerm;43999;51.660;5.616;2023-08-07T00:52:07;49.44;48.29;51.20;;
58197;Laerm;43999;51.660;5.616;2023-08-07T00:54:35;49.44;48.26;51.28;;
58197;Laerm;43999;51.660;5.616;2023-08-07T00:57:12;49.44;48.20;51.15;;
58197;Laerm;43999;51.660;5.616;2023-08-07T00:59:43;49.44;48.21;51.12;;
58197;Laerm;43999;51.660;5.616;2023-08-07T01:02:13;49.44;48.16;51.54;;
58197;Laerm;43999;51.660;5.616;2023-08-07T01:04:41;49.44;48.18;51.44;;
58197;Laerm;43999;51.660;5.616;2023-08-07T01:07:09;49.43;48.26;51.11;;
58197;Laerm;43999;51.660;5.616;2023-08-07T01:09:37;49.43;48.08;51.16;;
58197;Laerm;43999;51.660;5.616;2023-08-07T01:12:25;49.43;48.21;50.98;;
58197;Laerm;43999;51.660;5.616;2023-08-07T01:15:16;49.42;48.23;51.21;;
58197;Laerm;43999;51.660;5.616;2023-08-07T01:17:48;49.43;48.08;51.23;;
58197;Laerm;43999;51.660;5.616;2023-08-07T01:20:17;49.43;47.88;51.03;;
58197;Laerm;43999;51.660;5.616;2023-08-07T01:22:45;49.44;48.20;51.03;;
58197;Laerm;43999;51.660;5.616;2023-08-07T01:25:12;49.43;48.28;51.55;;
58197;Laerm;43999;51.660;5.616;2023-08-07T01:28:17;49.44;48.16;51.21;;
58197;Laerm;43999;51.660;5.616;2023-08-07T01:30:52;49.44;48.15;51.24;;
58197;Laerm;43999;51.660;5.616;2023-08-07T01:33:33;49.45;48.15;51.13;;
58197;Laerm;43999;51.660;5.616;2023-08-07T01:36:05;49.43;48.16;50.99;;
58197;Laerm;43999;51.660;5.616;2023-08-07T01:38:35;49.44;48.23;51.10;;
58197;Laerm;43999;51.660;5.616;2023-08-07T01:41:04;49.43;48.18;51.03;;
58197;Laerm;43999;51.660;5.616;2023-08-07T01:43:32;49.45;48.25;51.17;;
58197;Laerm;43999;51.660;5.616;2023-08-07T01:46:02;49.45;48.31;51.40;;
58197;Laerm;43999;51.660;5.616;2023-08-07T01:48:30;49.43;48.12;50.86;;
58197;Laerm;43999;51.660;5.616;2023-08-07T01:50:57;49.45;48.21;51.10;;
58197;Laerm;43999;51.660;5.616;2023-08-07T01:53:25;49.45;48.23;51.35;;
58197;Laerm;43999;51.660;5.616;2023-08-07T01:55:53;49.45;48.12;51.64;;
58197;Laerm;43999;51.660;5.616;2023-08-07T01:58:21;49.45;48.16;51.05;;
58197;Laerm;43999;51.660;5.616;2023-08-07T02:00:48;49.45;48.00;51.04;;
58197;Laerm;43999;51.660;5.616;2023-08-07T02:03:15;49.46;48.23;51.33;;
58197;Laerm;43999;51.660;5.616;2023-08-07T02:05:46;49.44;47.98;51.28;;
58197;Laerm;43999;51.660;5.616;2023-08-07T02:08:14;49.44;48.13;51.35;;
58197;Laerm;43999;51.660;5.616;2023-08-07T02:10:41;49.45;48.32;51.48;;
58197;Laerm;43999;51.660;5.616;2023-08-07T02:13:09;49.45;48.16;51.30;;
58197;Laerm;43999;51.660;5.616;2023-08-07T02:15:37;49.44;48.26;51.12;;
58197;Laerm;43999;51.660;5.616;2023-08-07T02:18:07;49.44;48.25;50.98;;
58197;Laerm;43999;51.660;5.616;2023-08-07T02:20:34;49.42;47.96;51.03;;
58197;Laerm;43999;51.660;5.616;2023-08-07T02:23:01;49.43;48.10;51.33;;
58197;Laerm;43999;51.660;5.616;2023-08-07T02:25:29;49.44;47.83;51.37;;
58197;Laerm;43999;51.660;5.616;2023-08-07T02:27:56;49.44;48.16;51.13;;
58197;Laerm;43999;51.660;5.616;2023-08-07T02:30:24;49.44;48.19;51.07;;
58197;Laerm;43999;51.660;5.616;2023-08-07T02:32:51;49.44;48.20;51.08;;
58197;Laerm;43999;51.660;5.616;2023-08-07T02:35:19;49.44;48.16;51.02;;
58197;Laerm;43999;51.660;5.616;2023-08-07T02:37:46;49.44;48.25;50.92;;
58197;Laerm;43999;51.660;5.616;2023-08-07T02:40:14;49.42;48.05;50.88;;
58197;Laerm;43999;51.660;5.616;2023-08-07T02:42:43;49.43;48.26;50.92;;
58197;Laerm;43999;51.660;5.616;2023-08-07T02:45:10;49.43;47.91;51.57;;
58197;Laerm;43999;51.660;5.616;2023-08-07T02:47:37;49.43;48.25;50.93;;
58197;Laerm;43999;51.660;5.616;2023-08-07T02:50:06;49.44;48.25;51.08;;
58197;Laerm;43999;51.660;5.616;2023-08-07T02:52:33;49.43;48.03;51.47;;
58197;Laerm;43999;51.660;5.616;2023-08-07T02:55:01;49.43;48.05;51.03;;
58197;Laerm;43999;51.660;5.616;2023-08-07T02:57:28;49.44;48.29;51.07;;
58197;Laerm;43999;51.660;5.616;2023-08-07T02:59:56;49.44;48.26;51.55;;
58197;Laerm;43999;51.660;5.616;2023-08-07T03:02:24;49.44;48.18;51.10;;
58197;Laerm;43999;51.660;5.616;2023-08-07T03:04:51;49.44;48.28;51.04;;
58197;Laerm;43999;51.660;5.616;2023-08-07T03:07:19;49.45;47.84;50.94;;
58197;Laerm;43999;51.660;5.616;2023-08-07T03:09:46;49.44;48.12;51.16;;
58197;Laerm;43999;51.660;5.616;2023-08-07T03:12:14;49.43;48.05;51.13;;
58197;Laerm;43999;51.660;5.616;2023-08-07T03:14:42;49.44;48.31;51.21;;
58197;Laerm;43999;51.660;5.616;2023-08-07T03:17:10;49.44;48.16;51.39;;
58197;Laerm;43999;51.660;5.616;2023-08-07T03:19:39;49.44;48.18;51.22;;
58197;Laerm;43999;51.660;5.616;2023-08-07T03:22:07;49.45;48.16;50.92;;
58197;Laerm;43999;51.660;5.616;2023-08-07T03:24:34;49.43;48.29;51.26;;
58197;Laerm;43999;51.660;5.616;2023-08-07T03:27:02;49.43;48.13;51.52;;
58197;Laerm;43999;51.660;5.616;2023-08-07T03:29:30;49.43;48.12;51.26;;
58197;Laerm;43999;51.660;5.616;2023-08-07T03:31:57;49.44;48.15;51.56;;
58197;Laerm;43999;51.660;5.616;2023-08-07T03:34:25;49.46;48.28;51.20;;
58197;Laerm;43999;51.660;5.616;2023-08-07T03:36:52;49.44;48.00;51.08;;
58197;Laerm;43999;51.660;5.616;2023-08-07T03:39:20;49.43;48.08;50.94;;
58197;Laerm;43999;51.660;5.616;2023-08-07T03:41:48;49.45;48.31;51.63;;
58197;Laerm;43999;51.660;5.616;2023-08-07T03:44:17;49.44;48.26;51.15;;
58197;Laerm;43999;51.660;5.616;2023-08-07T03:46:45;49.46;48.28;51.17;;
58197;Laerm;43999;51.660;5.616;2023-08-07T03:49:13;49.45;48.23;51.10;;
58197;Laerm;43999;51.660;5.616;2023-08-07T03:51:42;49.45;47.95;51.48;;
58197;Laerm;43999;51.660;5.616;2023-08-07T03:54:09;49.44;47.90;51.08;;
58197;Laerm;43999;51.660;5.616;2023-08-07T03:56:37;49.46;48.26;51.56;;
58197;Laerm;43999;51.660;5.616;2023-08-07T03:59:06;49.44;48.16;51.02;;
58197;Laerm;43999;51.660;5.616;2023-08-07T04:01:34;49.45;48.10;51.04;;
58197;Laerm;43999;51.660;5.616;2023-08-07T04:04:02;49.45;48.10;51.79;;
58197;Laerm;43999;51.660;5.616;2023-08-07T04:06:30;49.45;48.15;51.13;;
58197;Laerm;43999;51.660;5.616;2023-08-07T04:08:57;49.44;47.88;51.17;;
58197;Laerm;43999;51.660;5.616;2023-08-07T04:11:25;49.43;48.07;51.27;;
58197;Laerm;43999;51.660;5.616;2023-08-07T04:13:53;49.45;48.28;51.15;;
58197;Laerm;43999;51.660;5.616;2023-08-07T04:16:21;49.44;47.96;51.21;;
58197;Laerm;43999;51.660;5.616;2023-08-07T04:18:49;49.45;48.10;51.33;;
58197;Laerm;43999;51.660;5.616;2023-08-07T04:21:16;49.47;48.25;51.08;;
58197;Laerm;43999;51.660;5.616;2023-08-07T04:23:43;49.45;48.28;51.53;;
58197;Laerm;43999;51.660;5.616;2023-08-07T04:26:11;49.45;48.25;51.07;;
58197;Laerm;43999;51.660;5.616;2023-08-07T04:28:38;49.46;48.23;51.20;;
58197;Laerm;43999;51.660;5.616;2023-08-07T04:31:06;49.45;48.20;51.17;;
58197;Laerm;43999;51.660;5.616;2023-08-07T04:33:33;49.45;48.10;50.92;;
58197;Laerm;43999;51.660;5.616;2023-08-07T04:36:01;49.43;47.76;51.37;;
58197;Laerm;43999;51.660;5.616;2023-08-07T04:38:28;49.44;48.10;50.96;;
58197;Laerm;43999;51.660;5.616;2023-08-07T04:40:57;49.45;48.28;51.04;;
58197;Laerm;43999;51.660;5.616;2023-08-07T04:43:24;49.44;48.28;50.92;;
58197;Laerm;43999;51.660;5.616;2023-08-07T04:45:52;49.44;48.08;51.09;;
58197;Laerm;43999;51.660;5.616;2023-08-07T04:48:21;49.46;48.13;51.40;;
58197;Laerm;43999;51.660;5.616;2023-08-07T04:50:52;49.43;48.26;51.30;;
58197;Laerm;43999;51.660;5.616;2023-08-07T04:53:19;49.46;48.21;51.18;;
58197;Laerm;43999;51.660;5.616;2023-08-07T04:55:47;49.44;48.05;51.57;;
58197;Laerm;43999;51.660;5.616;2023-08-07T04:58:14;49.41;48.12;51.13;;
58197;Laerm;43999;51.660;5.616;2023-08-07T05:00:41;49.42;48.15;51.13;;
58197;Laerm;43999;51.660;5.616;2023-08-07T05:03:09;49.42;48.23;51.19;;
58197;Laerm;43999;51.660;5.616;2023-08-07T05:05:37;49.43;48.08;51.36;;
58197;Laerm;43999;51.660;5.616;2023-08-07T05:08:04;49.43;48.25;51.21;;
58197;Laerm;43999;51.660;5.616;2023-08-07T05:10:31;49.44;48.07;51.13;;
58197;Laerm;43999;51.660;5.616;2023-08-07T05:12:59;49.41;48.13;51.30;;
58197;Laerm;43999;51.660;5.616;2023-08-07T05:15:26;49.42;48.26;51.30;;
58197;Laerm;43999;51.660;5.616;2023-08-07T05:17:55;49.41;48.03;51.17;;
58197;Laerm;43999;51.660;5.616;2023-08-07T05:20:23;49.39;48.28;51.18;;
58197;Laerm;43999;51.660;5.616;2023-08-07T05:22:50;49.41;48.18;51.22;;
58197;Laerm;43999;51.660;5.616;2023-08-07T05:25:18;49.41;48.20;51.02;;
58197;Laerm;43999;51.660;5.616;2023-08-07T05:27:46;49.41;48.15;50.83;;
58197;Laerm;43999;51.660;5.616;2023-08-07T05:30:14;49.40;48.10;50.98;;
58197;Laerm;43999;51.660;5.616;2023-08-07T05:32:42;49.41;47.98;51.05;;
58197;Laerm;43999;51.660;5.616;2023-08-07T05:35:10;49.43;47.95;51.11;;
58197;Laerm;43999;51.660;5.616;2023-08-07T05:37:38;49.42;48.03;51.13;;
58197;Laerm;43999;51.660;5.616;2023-08-07T05:40:07;49.42;47.93;51.25;;
58197;Laerm;43999;51.660;5.616;2023-08-07T05:42:34;49.44;48.23;51.15;;
58197;Laerm;43999;51.660;5.616;2023-08-07T05:45:05;49.42;48.28;51.65;;
58197;Laerm;43999;51.660;5.616;2023-08-07T05:47:35;49.44;48.12;51.26;;
58197;Laerm;43999;51.660;5.616;2023-08-07T05:50:03;49.44;48.21;50.97;;
58197;Laerm;43999;51.660;5.616;2023-08-07T05:52:30;49.42;48.16;51.67;;
58197;Laerm;43999;51.660;5.616;2023-08-07T05:54:58;49.45;48.20;51.26;;
58197;Laerm;43999;51.660;5.616;2023-08-07T05:57:26;49.43;48.26;51.16;;
58197;Laerm;43999;51.660;5.616;2023-08-07T05:59:53;49.43;48.20;51.61;;
58197;Laerm;43999;51.660;5.616;2023-08-07T06:02:20;49.43;48.13;51.40;;
58197;Laerm;43999;51.660;5.616;2023-08-07T06:04:48;49.43;48.12;51.27;;
58197;Laerm;43999;51.660;5.616;2023-08-07T06:07:15;49.44;48.21;51.08;;
58197;Laerm;43999;51.660;5.616;2023-08-07T06:09:43;49.45;48.20;51.03;;
58197;Laerm;43999;51.660;5.616;2023-08-07T06:12:11;49.46;48.28;51.16;;
58197;Laerm;43999;51.660;5.616;2023-08-07T06:14:38;49.44;48.07;51.13;;
58197;Laerm;43999;51.660;5.616;2023-08-07T06:17:06;49.45;48.31;51.02;;
58197;Laerm;43999;51.660;5.616;2023-08-07T06:19:34;49.46;48.02;51.47;;
58197;Laerm;43999;51.660;5.616;2023-08-07T06:22:02;49.45;48.03;50.93;;
58197;Laerm;43999;51.660;5.616;2023-08-07T06:24:29;49.45;48.15;51.17;;
58197;Laerm;43999;51.660;5.616;2023-08-07T06:26:57;49.44;48.18;51.10;;
58197;Laerm;43999;51.660;5.616;2023-08-07T06:29:24;49.45;48.16;51.15;;
58197;Laerm;43999;51.660;5.616;2023-08-07T06:31:51;49.46;48.21;50.96;;
58197;Laerm;43999;51.660;5.616;2023-08-07T06:34:19;49.45;48.10;51.20;;
58197;Laerm;43999;51.660;5.616;2023-08-07T06:36:46;49.46;48.26;51.13;;
58197;Laerm;43999;51.660;5.616;2023-08-07T06:39:14;49.46;48.25;50.98;;
58197;Laerm;43999;51.660;5.616;2023-08-07T06:41:42;49.45;48.08;51.27;;
58197;Laerm;43999;51.660;5.616;2023-08-07T06:44:11;49.47;48.36;51.15;;
58197;Laerm;43999;51.660;5.616;2023-08-07T06:46:39;49.46;48.23;51.30;;
58197;Laerm;43999;51.660;5.616;2023-08-07T06:49:06;49.47;47.98;51.26;;
58197;Laerm;43999;51.660;5.616;2023-08-07T06:51:33;49.46;47.88;51.17;;
58197;Laerm;43999;51.660;5.616;2023-08-07T06:54:01;49.47;48.03;51.22;;
58197;Laerm;43999;51.660;5.616;2023-08-07T06:56:28;49.48;48.10;51.13;;
58197;Laerm;43999;51.660;5.616;2023-08-07T06:58:55;49.47;48.08;51.07;;
58197;Laerm;43999;51.660;5.616;2023-08-07T07:01:23;49.46;48.28;50.99;;
58197;Laerm;43999;51.660;5.616;2023-08-07T07:03:50;49.46;48.16;51.15;;
58197;Laerm;43999;51.660;5.616;2023-08-07T07:06:20;49.46;48.18;51.30;;
58197;Laerm;43999;51.660;5.616;2023-08-07T07:08:48;49.47;48.20;51.35;;
58197;Laerm;43999;51.660;5.616;2023-08-07T07:11:15;49.46;48.16;50.85;;
58197;Laerm;43999;51.660;5.616;2023-08-07T07:13:45;49.48;48.13;51.17;;
58197;Laerm;43999;51.660;5.616;2023-08-07T07:16:12;49.49;48.29;51.08;;
58197;Laerm;43999;51.660;5.616;2023-08-07T07:18:40;49.47;48.13;51.01;;
58197;Laerm;43999;51.660;5.616;2023-08-07T07:21:08;49.50;48.16;51.33;;
58197;Laerm;43999;51.660;5.616;2023-08-07T07:23:35;49.48;48.15;51.31;;
58197;Laerm;43999;51.660;5.616;2023-08-07T07:26:03;49.48;48.07;50.92;;
58197;Laerm;43999;51.660;5.616;2023-08-07T07:28:30;49.49;48.28;51.21;;
58197;Laerm;43999;51.660;5.616;2023-08-07T07:30:58;49.50;48.13;51.16;;
58197;Laerm;43999;51.660;5.616;2023-08-07T07:33:26;49.49;48.26;51.04;;
58197;Laerm;43999;51.660;5.616;2023-08-07T07:35:53;49.49;48.29;51.03;;
58197;Laerm;43999;51.660;5.616;2023-08-07T07:38:21;49.49;48.10;51.14;;
58197;Laerm;43999;51.660;5.616;2023-08-07T07:40:49;49.49;48.26;51.12;;
58197;Laerm;43999;51.660;5.616;2023-08-07T07:43:17;49.50;48.36;51.25;;
58197;Laerm;43999;51.660;5.616;2023-08-07T07:45:45;49.50;48.13;51.37;;
58197;Laerm;43999;51.660;5.616;2023-08-07T07:48:12;49.50;48.23;50.93;;
58197;Laerm;43999;51.660;5.616;2023-08-07T07:50:40;49.50;48.26;51.14;;
58197;Laerm;43999;51.660;5.616;2023-08-07T07:53:08;49.51;48.23;51.21;;
58197;Laerm;43999;51.660;5.616;2023-08-07T07:55:35;49.51;48.16;51.06;;
58197;Laerm;43999;51.660;5.616;2023-08-07T07:58:05;49.52;48.36;51.12;;
58197;Laerm;43999;51.660;5.616;2023-08-07T08:00:33;49.51;48.37;50.97;;
58197;Laerm;43999;51.660;5.616;2023-08-07T08:03:00;49.51;48.28;51.00;;
58197;Laerm;43999;51.660;5.616;2023-08-07T08:05:30;49.51;48.34;51.21;;
58197;Laerm;43999;51.660;5.616;2023-08-07T08:07:59;49.50;48.21;51.30;;
58197;Laerm;43999;51.660;5.616;2023-08-07T08:10:27;49.49;48.26;51.12;;
58197;Laerm;43999;51.660;5.616;2023-08-07T08:12:57;49.49;48.21;51.13;;
58197;Laerm;43999;51.660;5.616;2023-08-07T08:15:25;49.50;48.34;51.31;;
58197;Laerm;43999;51.660;5.616;2023-08-07T08:17:53;49.51;48.36;51.11;;
58197;Laerm;43999;51.660;5.616;2023-08-07T08:20:21;49.52;48.34;51.13;;
58197;Laerm;43999;51.660;5.616;2023-08-07T08:22:48;49.50;48.23;51.15;;
58197;Laerm;43999;51.660;5.616;2023-08-07T08:25:16;49.51;48.08;51.00;;
58197;Laerm;43999;51.660;5.616;2023-08-07T08:27:45;49.51;48.13;51.13;;
58197;Laerm;43999;51.660;5.616;2023-08-07T08:30:13;49.52;48.21;51.04;;
58197;Laerm;43999;51.660;5.616;2023-08-07T08:32:40;49.52;48.21;51.60;;
58197;Laerm;43999;51.660;5.616;2023-08-07T08:35:08;49.54;48.20;51.41;;
58197;Laerm;43999;51.660;5.616;2023-08-07T08:37:35;49.54;48.23;51.49;;
58197;Laerm;43999;51.660;5.616;2023-08-07T08:40:03;49.56;48.28;51.32;;
58197;Laerm;43999;51.660;5.616;2023-08-07T08:42:31;49.57;48.37;51.32;;
58197;Laerm;43999;51.660;5.616;2023-08-07T08:45:00;49.55;48.34;51.15;;
58197;Laerm;43999;51.660;5.616;2023-08-07T08:47:33;49.56;48.26;51.04;;
58197;Laerm;43999;51.660;5.616;2023-08-07T08:50:08;49.58;48.40;51.25;;
58197;Laerm;43999;51.660;5.616;2023-08-07T08:52:40;49.60;48.28;51.16;;
58197;Laerm;43999;51.660;5.616;2023-08-07T08:55:11;49.60;48.32;51.16;;
58197;Laerm;43999;51.660;5.616;2023-08-07T08:57:40;49.61;48.45;51.13;;
58197;Laerm;43999;51.660;5.616;2023-08-07T09:00:09;49.60;47.91;51.37;;
58197;Laerm;43999;51.660;5.616;2023-08-07T09:02:51;49.60;48.36;51.38;;
58197;Laerm;43999;51.660;5.616;2023-08-07T09:05:21;49.62;48.43;51.19;;
58197;Laerm;43999;51.660;5.616;2023-08-07T09:07:49;49.60;48.37;51.18;;
58197;Laerm;43999;51.660;5.616;2023-08-07T09:10:18;49.64;47.96;51.17;;
58197;Laerm;43999;51.660;5.616;2023-08-07T09:13:00;49.65;48.29;51.37;;
58197;Laerm;43999;51.660;5.616;2023-08-07T09:15:31;49.67;48.42;51.52;;
58197;Laerm;43999;51.660;5.616;2023-08-07T09:18:00;49.65;48.42;51.22;;
58197;Laerm;43999;51.660;5.616;2023-08-07T09:20:29;49.64;48.31;51.13;;
58197;Laerm;43999;51.660;5.616;2023-08-07T09:22:57;49.62;48.31;51.38;;
58197;Laerm;43999;51.660;5.616;2023-08-07T09:25:33;49.65;48.22;51.21;;
58197;Laerm;43999;51.660;5.616;2023-08-07T09:28:05;49.66;48.39;51.11;;
58197;Laerm;43999;51.660;5.616;2023-08-07T09:30:35;49.69;48.39;51.29;;
58197;Laerm;43999;51.660;5.616;2023-08-07T09:33:06;49.69;48.46;51.39;;
58197;Laerm;43999;51.660;5.616;2023-08-07T09:35:34;49.69;48.52;51.20;;
58197;Laerm;43999;51.660;5.616;2023-08-07T09:38:02;49.69;48.26;51.79;;
58197;Laerm;43999;51.660;5.616;2023-08-07T09:40:31;49.71;48.54;51.31;;
58197;Laerm;43999;51.660;5.616;2023-08-07T09:43:01;49.74;48.45;51.50;;
58197;Laerm;43999;51.660;5.616;2023-08-07T09:45:30;49.72;48.48;51.29;;
58197;Laerm;43999;51.660;5.616;2023-08-07T09:48:06;49.73;48.42;51.33;;
58197;Laerm;43999;51.660;5.616;2023-08-07T09:50:34;49.74;48.45;51.19;;
58197;Laerm;43999;51.660;5.616;2023-08-07T09:53:01;49.72;48.54;51.42;;
58197;Laerm;43999;51.660;5.616;2023-08-07T09:55:29;49.73;48.36;51.30;;
58197;Laerm;43999;51.660;5.616;2023-08-07T09:58:01;49.72;48.42;51.12;;
58197;Laerm;43999;51.660;5.616;2023-08-07T10:00:34;49.74;48.46;51.23;;
58197;Laerm;43999;51.660;5.616;2023-08-07T10:03:05;49.75;48.45;51.35;;
58197;Laerm;43999;51.660;5.616;2023-08-07T10:05:33;49.73;48.54;51.26;;
58197;Laerm;43999;51.660;5.616;2023-08-07T10:08:02;49.71;48.42;51.44;;
58197;Laerm;43999;51.660;5.616;2023-08-07T10:10:32;49.69;48.37;51.42;;
58197;Laerm;43999;51.660;5.616;2023-08-07T10:13:01;49.70;48.37;51.27;;
58197;Laerm;43999;51.660;5.616;2023-08-07T10:15:33;49.72;48.49;51.27;;
58197;Laerm;43999;51.660;5.616;2023-08-07T10:18:02;49.71;48.12;51.44;;
58197;Laerm;43999;51.660;5.616;2023-08-07T10:20:32;49.71;48.28;51.31;;
58197;Laerm;43999;51.660;5.616;2023-08-07T10:23:11;49.70;48.49;51.52;;
58197;Laerm;43999;51.660;5.616;2023-08-07T10:25:43;49.68;48.40;51.19;;
58197;Laerm;43999;51.660;5.616;2023-08-07T10:28:18;49.66;48.18;51.30;;
58197;Laerm;43999;51.660;5.616;2023-08-07T10:30:46;49.65;48.21;51.45;;
58197;Laerm;43999;51.660;5.616;2023-08-07T10:33:17;49.65;48.15;51.24;;
58197;Laerm;43999;51.660;5.616;2023-08-07T10:35:48;49.66;48.18;51.22;;
58197;Laerm;43999;51.660;5.616;2023-08-07T10:38:22;49.64;48.29;51.19;;
58197;Laerm;43999;51.660;5.616;2023-08-07T10:41:14;49.64;48.29;51.40;;
58197;Laerm;43999;51.660;5.616;2023-08-07T10:43:44;49.62;48.29;51.05;;
58197;Laerm;43999;51.660;5.616;2023-08-07T10:46:20;49.63;48.36;51.16;;
58197;Laerm;43999;51.660;5.616;2023-08-07T10:48:55;49.62;48.46;51.27;;
58197;Laerm;43999;51.660;5.616;2023-08-07T10:51:30;49.64;48.36;51.38;;
58197;Laerm;43999;51.660;5.616;2023-08-07T10:54:01;49.63;48.32;51.22;;
58197;Laerm;43999;51.660;5.616;2023-08-07T10:56:36;49.65;48.31;51.41;;
58197;Laerm;43999;51.660;5.616;2023-08-07T10:59:12;49.65;48.31;51.43;;
58197;Laerm;43999;51.660;5.616;2023-08-07T11:01:43;49.68;48.39;51.43;;
58197;Laerm;43999;51.660;5.616;2023-08-07T11:04:14;49.71;48.51;51.30;;
58197;Laerm;43999;51.660;5.616;2023-08-07T11:06:47;49.71;48.52;51.40;;
58197;Laerm;43999;51.660;5.616;2023-08-07T11:09:14;49.73;48.34;51.22;;
58197;Laerm;43999;51.660;5.616;2023-08-07T11:11:48;49.70;48.25;51.28;;
58197;Laerm;43999;51.660;5.616;2023-08-07T11:14:18;49.71;48.45;51.35;;
58197;Laerm;43999;51.660;5.616;2023-08-07T11:16:48;49.69;48.49;51.04;;
58197;Laerm;43999;51.660;5.616;2023-08-07T11:19:17;49.68;48.43;51.24;;
58197;Laerm;43999;51.660;5.616;2023-08-07T11:21:47;49.68;48.36;51.39;;
58197;Laerm;43999;51.660;5.616;2023-08-07T11:24:17;49.68;48.37;51.27;;
58197;Laerm;43999;51.660;5.616;2023-08-07T11:26:47;49.69;48.43;51.51;;
58197;Laerm;43999;51.660;5.616;2023-08-07T11:29:18;49.68;48.48;51.50;;
58197;Laerm;43999;51.660;5.616;2023-08-07T11:31:46;49.68;48.43;51.67;;
58197;Laerm;43999;51.660;5.616;2023-08-07T11:34:17;49.70;48.32;51.30;;
58197;Laerm;43999;51.660;5.616;2023-08-07T11:36:46;49.71;48.32;51.06;;
58197;Laerm;43999;51.660;5.616;2023-08-07T11:39:14;49.70;48.54;51.32;;
58197;Laerm;43999;51.660;5.616;2023-08-07T11:41:41;49.67;48.34;51.20;;
58197;Laerm;43999;51.660;5.616;2023-08-07T11:44:11;49.66;48.49;51.53;;
58197;Laerm;43999;51.660;5.616;2023-08-07T11:46:39;49.66;48.46;51.54;;
58197;Laerm;43999;51.660;5.616;2023-08-07T11:49:07;49.67;48.48;51.14;;
58197;Laerm;43999;51.660;5.616;2023-08-07T11:51:37;49.68;48.25;51.62;;
58197;Laerm;43999;51.660;5.616;2023-08-07T11:54:05;49.66;48.37;51.29;;
58197;Laerm;43999;51.660;5.616;2023-08-07T11:56:32;49.67;48.42;51.35;;
58197;Laerm;43999;51.660;5.616;2023-08-07T11:59:02;49.67;48.12;51.43;;
58197;Laerm;43999;51.660;5.616;2023-08-07T12:01:37;49.67;48.43;51.33;;
58197;Laerm;43999;51.660;5.616;2023-08-07T12:06:33;49.68;48.49;51.42;;
58197;Laerm;43999;51.660;5.616;2023-08-07T12:09:02;49.70;48.43;51.17;;
58197;Laerm;43999;51.660;5.616;2023-08-07T12:11:30;49.71;48.34;51.34;;
58197;Laerm;43999;51.660;5.616;2023-08-07T12:14:00;49.72;48.43;51.26;;
58197;Laerm;43999;51.660;5.616;2023-08-07T12:16:34;49.70;48.51;51.31;;
58197;Laerm;43999;51.660;5.616;2023-08-07T12:19:03;49.69;48.21;51.30;;
58197;Laerm;43999;51.660;5.616;2023-08-07T12:21:31;49.69;48.54;51.34;;
58197;Laerm;43999;51.660;5.616;2023-08-07T12:24:00;49.68;48.40;51.30;;
58197;Laerm;43999;51.660;5.616;2023-08-07T12:26:30;49.68;48.15;51.32;;
58197;Laerm;43999;51.660;5.616;2023-08-07T12:28:57;49.69;48.39;51.59;;
58197;Laerm;43999;51.660;5.616;2023-08-07T12:31:25;49.69;48.23;51.56;;
58197;Laerm;43999;51.660;5.616;2023-08-07T12:33:54;49.69;48.32;51.14;;
58197;Laerm;43999;51.660;5.616;2023-08-07T12:36:22;49.71;48.42;51.44;;
58197;Laerm;43999;51.660;5.616;2023-08-07T12:38:49;49.70;48.48;51.36;;
58197;Laerm;43999;51.660;5.616;2023-08-07T12:41:18;49.72;48.42;51.63;;
58197;Laerm;43999;51.660;5.616;2023-08-07T12:43:48;49.70;48.37;51.40;;
58197;Laerm;43999;51.660;5.616;2023-08-07T12:46:16;49.70;48.49;51.49;;
58197;Laerm;43999;51.660;5.616;2023-08-07T12:48:46;49.70;48.48;51.59;;
58197;Laerm;43999;51.660;5.616;2023-08-07T12:51:14;49.69;48.34;51.29;;
58197;Laerm;43999;51.660;5.616;2023-08-07T12:53:41;49.70;48.15;51.40;;
58197;Laerm;43999;51.660;5.616;2023-08-07T12:56:08;49.70;48.40;51.40;;
58197;Laerm;43999;51.660;5.616;2023-08-07T12:58:36;49.70;48.34;51.43;;
58197;Laerm;43999;51.660;5.616;2023-08-07T13:01:05;49.69;48.51;51.23;;
58197;Laerm;43999;51.660;5.616;2023-08-07T13:03:33;49.69;48.39;51.37;;
58197;Laerm;43999;51.660;5.616;2023-08-07T13:06:01;49.71;48.52;51.18;;
58197;Laerm;43999;51.660;5.616;2023-08-07T13:08:32;49.70;48.40;51.32;;
58197;Laerm;43999;51.660;5.616;2023-08-07T13:11:02;49.70;48.42;51.20;;
58197;Laerm;43999;51.660;5.616;2023-08-07T13:13:29;49.69;48.21;51.33;;
58197;Laerm;43999;51.660;5.616;2023-08-07T13:15:57;49.70;48.46;51.35;;
58197;Laerm;43999;51.660;5.616;2023-08-07T13:18:25;49.70;48.31;51.78;;
58197;Laerm;43999;51.660;5.616;2023-08-07T13:20:53;49.70;48.54;51.26;;
58197;Laerm;43999;51.660;5.616;2023-08-07T13:23:23;49.70;48.54;51.56;;
58197;Laerm;43999;51.660;5.616;2023-08-07T13:25:50;49.69;48.51;51.20;;
58197;Laerm;43999;51.660;5.616;2023-08-07T13:28:18;49.70;48.37;51.17;;
58197;Laerm;43999;51.660;5.616;2023-08-07T13:30:45;49.70;48.54;51.37;;
58197;Laerm;43999;51.660;5.616;2023-08-07T13:33:13;49.68;48.46;51.15;;
58197;Laerm;43999;51.660;5.616;2023-08-07T13:35:41;49.70;48.46;51.23;;
58197;Laerm;43999;51.660;5.616;2023-08-07T13:38:09;49.70;48.54;51.25;;
58197;Laerm;43999;51.660;5.616;2023-08-07T13:40:37;49.71;48.29;51.25;;
58197;Laerm;43999;51.660;5.616;2023-08-07T13:43:05;49.73;48.45;51.26;;
58197;Laerm;43999;51.660;5.616;2023-08-07T13:45:37;49.72;48.40;51.53;;
58197;Laerm;43999;51.660;5.616;2023-08-07T13:48:06;49.71;48.32;51.51;;
58197;Laerm;43999;51.660;5.616;2023-08-07T13:50:36;49.69;48.23;51.43;;
58197;Laerm;43999;51.660;5.616;2023-08-07T13:53:06;49.68;48.51;51.63;;
58197;Laerm;43999;51.660;5.616;2023-08-07T13:55:43;49.67;48.31;51.33;;